»·PEaware :: N65MH KAST-KGEG

N65MH :: KAST-KGEG

FLIGHT INFORMATION

Flight Status: Arrived
Operator: Privately registered:
United States
More flights under this callsign
Pilot: Armando C. (16967)
Aircraft: BEECH AIRCRAFT BARON
(BE58)
More flights by this aircraft type
Origin: KAST Astoria Regl
United States
Destination: KGEG Spokane Intl
United States
More flights between these airports :: More routes between these airports
Route: +DIRECT
File this flight plan on PilotEdge
Remarks:
Altitude:
(Current/Filed)
9,500ft
Speed:
(Current/Filed)
170kts
Departed: 28-Apr-18 09:12 AM
Arrived: 28-Apr-18 10:53 AM
Distance/Time
Traveled:
275nm/1:41
Distance/Time
To Go:
Arrived

Flight Plot

Page will automatically refresh every two minutes.

Flight plan parsing failed; only flown route is shown


Map Options




Map Legend


Flown Route
Filed Route
Departure Airport
Arrival Airport
Navaid (VOR, NDB)
Fix

Horizontal Profiles

Position Reports

Time Latitude Longitude Heading Altitude Ground
Speed
28-Apr-18 09:10 46.159409 -123.886870 1 16ft 0kts
28-Apr-18 09:11 46.159345 -123.881899 95 16ft 83kts
28-Apr-18 09:12 46.155352 -123.836863 94 1258ft 118kts
28-Apr-18 09:13 46.159619 -123.792462 64 2442ft 116kts
28-Apr-18 09:14 46.173913 -123.737062 67 2633ft 151kts
28-Apr-18 09:15 46.188603 -123.681515 66 3335ft 147kts
28-Apr-18 09:16 46.203232 -123.626449 66 3976ft 147kts
28-Apr-18 09:17 46.217910 -123.571149 66 4583ft 148kts
28-Apr-18 09:18 46.232709 -123.515280 66 5159ft 149kts
28-Apr-18 09:19 46.247569 -123.459033 66 5707ft 150kts
28-Apr-18 09:20 46.262754 -123.401469 66 6406ft 156kts
28-Apr-18 09:21 46.278139 -123.342933 67 7148ft 160kts
28-Apr-18 09:22 46.294003 -123.282388 67 7891ft 162kts
28-Apr-18 09:23 46.309206 -123.224253 67 8563ft 163kts
28-Apr-18 09:24 46.325241 -123.162789 68 9232ft 164kts
28-Apr-18 09:25 46.341725 -123.099395 68 9626ft 179kts
28-Apr-18 09:26 46.359877 -123.029212 67 9621ft 191kts
28-Apr-18 09:27 46.378585 -122.956810 67 9624ft 193kts
28-Apr-18 09:28 46.397346 -122.884011 66 9628ft 192kts
28-Apr-18 09:29 46.415970 -122.811596 66 9628ft 192kts
28-Apr-18 09:30 46.434561 -122.739023 66 9626ft 192kts
28-Apr-18 09:31 46.453124 -122.666322 66 9624ft 192kts
28-Apr-18 09:32 46.471623 -122.593610 66 9621ft 192kts
28-Apr-18 09:33 46.490004 -122.521130 65 9618ft 191kts
28-Apr-18 09:34 46.508200 -122.449169 65 9613ft 189kts
28-Apr-18 09:35 46.526698 -122.376122 70 9611ft 196kts
28-Apr-18 09:36 46.544175 -122.305577 66 9609ft 194kts
28-Apr-18 09:37 46.562670 -122.232442 68 9607ft 193kts
28-Apr-18 09:38 46.580843 -122.159650 67 9610ft 191kts
28-Apr-18 09:39 46.598835 -122.087427 67 9610ft 190kts
28-Apr-18 09:40 46.616820 -122.014953 67 9610ft 190kts
28-Apr-18 09:41 46.634587 -121.943116 67 9610ft 190kts
28-Apr-18 09:42 46.650388 -121.879036 67 9611ft 190kts
28-Apr-18 09:43 46.666092 -121.815168 67 9611ft 190kts
28-Apr-18 09:44 46.680545 -121.756228 67 9611ft 190kts
28-Apr-18 09:45 46.696096 -121.692634 67 9611ft 190kts
28-Apr-18 09:46 46.713623 -121.620687 67 9589ft 190kts
28-Apr-18 09:47 46.730804 -121.549988 66 9559ft 189kts
28-Apr-18 09:48 46.748427 -121.477990 71 9538ft 191kts
28-Apr-18 09:49 46.766137 -121.404041 70 9529ft 195kts
28-Apr-18 09:50 46.783675 -121.331003 69 9520ft 192kts
28-Apr-18 09:51 46.801427 -121.257060 69 9512ft 195kts
28-Apr-18 09:52 46.819404 -121.181826 69 9495ft 197kts
28-Apr-18 09:53 46.837376 -121.106478 69 9494ft 198kts
28-Apr-18 09:54 46.855463 -121.030293 70 9495ft 198kts
28-Apr-18 09:55 46.873497 -120.954088 70 9493ft 198kts
28-Apr-18 09:56 46.891421 -120.878048 70 9492ft 199kts
28-Apr-18 09:57 46.909414 -120.801504 71 9493ft 199kts
28-Apr-18 09:58 46.927302 -120.725062 72 9493ft 199kts
28-Apr-18 09:59 46.945199 -120.648360 72 9494ft 199kts
28-Apr-18 10:00 46.962957 -120.571952 73 9494ft 198kts
28-Apr-18 10:01 46.980616 -120.495694 73 9493ft 197kts
28-Apr-18 10:02 46.998123 -120.419922 74 9494ft 196kts
28-Apr-18 10:03 47.015173 -120.345755 75 9495ft 194kts
28-Apr-18 10:04 47.032287 -120.271133 76 9491ft 193kts
28-Apr-18 10:05 47.048944 -120.198186 75 9491ft 191kts
28-Apr-18 10:06 47.065736 -120.124384 75 9480ft 191kts
28-Apr-18 10:07 47.082486 -120.050557 75 9471ft 191kts
28-Apr-18 10:08 47.099240 -119.976446 75 9467ft 191kts
28-Apr-18 10:09 47.115227 -119.905347 73 9464ft 179kts
28-Apr-18 10:10 47.130292 -119.838476 74 9469ft 175kts
28-Apr-18 10:11 47.145515 -119.770478 74 9472ft 176kts
28-Apr-18 10:12 47.160808 -119.701961 74 9473ft 177kts
28-Apr-18 10:13 47.176047 -119.633445 74 9473ft 177kts
28-Apr-18 10:14 47.191316 -119.564569 74 9473ft 177kts
28-Apr-18 10:15 47.206512 -119.495831 74 9472ft 177kts
28-Apr-18 10:16 47.221687 -119.426991 74 9475ft 178kts
28-Apr-18 10:17 47.236972 -119.357354 75 9478ft 180kts
28-Apr-18 10:18 47.252248 -119.287509 76 9481ft 182kts
28-Apr-18 10:19 47.267828 -119.216026 76 9482ft 184kts
28-Apr-18 10:20 47.282065 -119.150533 76 9482ft 184kts
28-Apr-18 10:21 47.297667 -119.078513 76 9482ft 184kts
28-Apr-18 10:22 47.313135 -119.006857 76 9482ft 184kts
28-Apr-18 10:23 47.326072 -118.946731 76 9482ft 186kts
28-Apr-18 10:24 47.341660 -118.874042 75 9482ft 187kts
28-Apr-18 10:25 47.353932 -118.816633 75 9482ft 189kts
28-Apr-18 10:26 47.369745 -118.742463 75 9482ft 190kts
28-Apr-18 10:27 47.388060 -118.656191 75 9482ft 190kts
28-Apr-18 10:28 47.403742 -118.582037 75 9482ft 190kts
28-Apr-18 10:29 47.419397 -118.507745 75 9491ft 190kts
28-Apr-18 10:30 47.435006 -118.433385 75 9505ft 189kts
28-Apr-18 10:31 47.447911 -118.371696 76 9516ft 188kts
28-Apr-18 10:32 47.462706 -118.300738 76 9528ft 188kts
28-Apr-18 10:33 47.478035 -118.226949 76 9528ft 188kts
28-Apr-18 10:34 47.493333 -118.153041 76 9528ft 188kts
28-Apr-18 10:35 47.506450 -118.076324 82 8953ft 197kts
28-Apr-18 10:36 47.516814 -117.996620 82 8271ft 197kts
28-Apr-18 10:37 47.530618 -117.918681 54 7589ft 203kts
28-Apr-18 10:38 47.566141 -117.854080 52 6952ft 202kts
28-Apr-18 10:39 47.601773 -117.789487 52 6332ft 202kts
28-Apr-18 10:40 47.636944 -117.725497 52 5893ft 194kts
28-Apr-18 10:41 47.667768 -117.665630 50 6124ft 177kts
28-Apr-18 10:42 47.700909 -117.609457 52 6028ft 184kts
28-Apr-18 10:43 47.735029 -117.549023 50 5361ft 200kts
28-Apr-18 10:44 47.768719 -117.487470 52 5037ft 179kts
28-Apr-18 10:45 47.799220 -117.431135 52 5047ft 173kts
28-Apr-18 10:46 47.782476 -117.376314 142 4745ft 171kts
28-Apr-18 10:47 47.735668 -117.387121 202 4280ft 184kts
28-Apr-18 10:48 47.693427 -117.424373 222 4045ft 169kts
28-Apr-18 10:49 47.669159 -117.460837 226 3469ft 95kts
28-Apr-18 10:50 47.649943 -117.489914 225 2944ft 99kts
28-Apr-18 10:51 47.630711 -117.518837 226 2425ft 96kts
28-Apr-18 10:52 47.620903 -117.532102 136 2385ft 19kts
28-Apr-18 10:53 47.620724 -117.531861 134 2385ft 0kts
28-Apr-18 10:54 47.621416 -117.529646 47 2385ft 12kts
28-Apr-18 10:55 47.623646 -117.526081 78 2385ft 8kts
28-Apr-18 10:56 47.621789 -117.525353 180 2385ft 8kts
28-Apr-18 10:57 47.621149 -117.523959 352 2385ft 2kts
28-Apr-18 10:58 47.621430 -117.524178 270 2385ft 0kts
28-Apr-18 10:59 47.621430 -117.524178 270 2385ft 0kts
28-Apr-18 11:00 47.621430 -117.524178 270 2385ft 0kts
28-Apr-18 11:01 47.621430 -117.524178 270 2385ft 0kts
28-Apr-18 11:02 47.621430 -117.524178 270 2385ft 0kts

Navigation Log

Ident Type
Flight plan parsing failed, navigation log unavailable